sim
Sign-in with your pilot id or email,
or register
Callsign
Passwort

Schedule Details

Flight Number: OEO5698
Departure: Venice Marco Polo Airport (LIPZ) at 06:50
Arrival: Munich Airport (EDDM) at 08:00

Weather Information
Getting current METAR information for LIPZ 250220Z 21009KT 9999 SCT065 20/17 Q1001 NOSIG
Getting current METAR information for EDDM 250220Z 23004KT 190V260 9999 -RA FEW008 SCT040 12/12 Q1002 TEMPO RA BKN008

Schedule Frequency

Route Map